sensor_id;sensor_type;location;lat;lon;timestamp;temperature;humidity
18880;DHT22;9572;52.378;13.404;2023-09-19T00:00:09;17.60;99.90
18880;DHT22;9572;52.378;13.404;2023-09-19T00:02:38;17.60;99.90
18880;DHT22;9572;52.378;13.404;2023-09-19T00:05:06;17.50;99.90
18880;DHT22;9572;52.378;13.404;2023-09-19T00:07:34;17.50;99.90
18880;DHT22;9572;52.378;13.404;2023-09-19T00:10:04;17.50;99.90
18880;DHT22;9572;52.378;13.404;2023-09-19T00:12:31;17.40;99.90
18880;DHT22;9572;52.378;13.404;2023-09-19T00:14:58;17.30;99.90
18880;DHT22;9572;52.378;13.404;2023-09-19T00:17:28;17.30;99.90
18880;DHT22;9572;52.378;13.404;2023-09-19T00:19:57;17.30;99.90
18880;DHT22;9572;52.378;13.404;2023-09-19T00:22:24;17.30;99.90
18880;DHT22;9572;52.378;13.404;2023-09-19T00:24:52;17.30;99.90
18880;DHT22;9572;52.378;13.404;2023-09-19T00:27:20;17.20;99.90
18880;DHT22;9572;52.378;13.404;2023-09-19T00:29:47;17.30;99.90
18880;DHT22;9572;52.378;13.404;2023-09-19T00:32:14;17.20;99.90
18880;DHT22;9572;52.378;13.404;2023-09-19T00:34:43;17.20;99.90
18880;DHT22;9572;52.378;13.404;2023-09-19T00:37:10;17.20;99.90
18880;DHT22;9572;52.378;13.404;2023-09-19T00:39:38;17.20;99.90
18880;DHT22;9572;52.378;13.404;2023-09-19T00:42:06;17.20;99.90
18880;DHT22;9572;52.378;13.404;2023-09-19T00:44:33;17.20;99.90
18880;DHT22;9572;52.378;13.404;2023-09-19T00:47:03;17.20;99.90
18880;DHT22;9572;52.378;13.404;2023-09-19T00:49:30;17.30;99.90
18880;DHT22;9572;52.378;13.404;2023-09-19T00:52:00;17.20;99.90
18880;DHT22;9572;52.378;13.404;2023-09-19T00:54:27;17.20;99.90
18880;DHT22;9572;52.378;13.404;2023-09-19T00:56:54;17.20;99.90
18880;DHT22;9572;52.378;13.404;2023-09-19T00:59:21;17.20;99.90
18880;DHT22;9572;52.378;13.404;2023-09-19T01:01:50;17.20;99.90
18880;DHT22;9572;52.378;13.404;2023-09-19T01:04:19;17.10;99.90
18880;DHT22;9572;52.378;13.404;2023-09-19T01:06:47;17.10;99.90
18880;DHT22;9572;52.378;13.404;2023-09-19T01:09:20;17.10;99.90
18880;DHT22;9572;52.378;13.404;2023-09-19T01:11:49;17.10;99.90
18880;DHT22;9572;52.378;13.404;2023-09-19T01:14:29;17.10;99.90
18880;DHT22;9572;52.378;13.404;2023-09-19T01:17:03;17.10;99.90
18880;DHT22;9572;52.378;13.404;2023-09-19T01:20:02;17.00;99.90
18880;DHT22;9572;52.378;13.404;2023-09-19T01:22:37;17.00;99.90
18880;DHT22;9572;52.378;13.404;2023-09-19T01:25:47;17.00;99.90
18880;DHT22;9572;52.378;13.404;2023-09-19T01:28:31;17.10;99.90
18880;DHT22;9572;52.378;13.404;2023-09-19T01:31:07;17.00;99.90
18880;DHT22;9572;52.378;13.404;2023-09-19T01:33:59;17.00;99.90
18880;DHT22;9572;52.378;13.404;2023-09-19T01:36:27;17.00;99.90
18880;DHT22;9572;52.378;13.404;2023-09-19T01:38:56;17.00;99.90
18880;DHT22;9572;52.378;13.404;2023-09-19T01:41:41;17.10;99.90
18880;DHT22;9572;52.378;13.404;2023-09-19T01:44:24;17.10;99.90
18880;DHT22;9572;52.378;13.404;2023-09-19T01:46:57;17.10;99.90
18880;DHT22;9572;52.378;13.404;2023-09-19T01:49:35;17.10;99.90
18880;DHT22;9572;52.378;13.404;2023-09-19T01:52:09;17.00;99.90
18880;DHT22;9572;52.378;13.404;2023-09-19T01:54:46;17.20;99.90
18880;DHT22;9572;52.378;13.404;2023-09-19T01:57:20;17.10;99.90
18880;DHT22;9572;52.378;13.404;2023-09-19T01:59:52;17.10;99.90
18880;DHT22;9572;52.378;13.404;2023-09-19T02:02:25;17.10;99.90
18880;DHT22;9572;52.378;13.404;2023-09-19T02:04:54;17.00;99.90
18880;DHT22;9572;52.378;13.404;2023-09-19T02:07:22;17.00;99.90
18880;DHT22;9572;52.378;13.404;2023-09-19T02:09:49;16.90;99.90
18880;DHT22;9572;52.378;13.404;2023-09-19T02:12:16;16.90;99.90
18880;DHT22;9572;52.378;13.404;2023-09-19T02:14:43;16.80;99.90
18880;DHT22;9572;52.378;13.404;2023-09-19T02:17:10;16.80;99.90
18880;DHT22;9572;52.378;13.404;2023-09-19T02:19:41;16.80;99.90
18880;DHT22;9572;52.378;13.404;2023-09-19T02:22:09;16.70;99.90
18880;DHT22;9572;52.378;13.404;2023-09-19T02:24:37;16.60;99.90
18880;DHT22;9572;52.378;13.404;2023-09-19T02:27:04;16.60;99.90
18880;DHT22;9572;52.378;13.404;2023-09-19T02:29:33;16.50;99.90
18880;DHT22;9572;52.378;13.404;2023-09-19T02:32:00;16.50;99.90
18880;DHT22;9572;52.378;13.404;2023-09-19T02:34:28;16.50;99.90
18880;DHT22;9572;52.378;13.404;2023-09-19T02:36:57;16.50;99.90
18880;DHT22;9572;52.378;13.404;2023-09-19T02:39:25;16.40;99.90
18880;DHT22;9572;52.378;13.404;2023-09-19T02:41:53;16.40;99.90
18880;DHT22;9572;52.378;13.404;2023-09-19T02:44:22;16.30;99.90
18880;DHT22;9572;52.378;13.404;2023-09-19T02:46:49;16.30;99.90
18880;DHT22;9572;52.378;13.404;2023-09-19T02:49:17;16.30;99.90
18880;DHT22;9572;52.378;13.404;2023-09-19T02:51:45;16.30;99.90
18880;DHT22;9572;52.378;13.404;2023-09-19T02:54:14;16.30;99.90
18880;DHT22;9572;52.378;13.404;2023-09-19T02:56:43;16.30;99.90
18880;DHT22;9572;52.378;13.404;2023-09-19T02:59:10;16.40;99.90
18880;DHT22;9572;52.378;13.404;2023-09-19T03:01:37;16.50;99.90
18880;DHT22;9572;52.378;13.404;2023-09-19T03:04:06;16.50;99.90
18880;DHT22;9572;52.378;13.404;2023-09-19T03:06:34;16.50;99.90
18880;DHT22;9572;52.378;13.404;2023-09-19T03:09:00;16.50;99.90
18880;DHT22;9572;52.378;13.404;2023-09-19T03:11:30;16.40;99.90
18880;DHT22;9572;52.378;13.404;2023-09-19T03:13:59;16.30;99.90
18880;DHT22;9572;52.378;13.404;2023-09-19T03:16:28;16.30;99.90
18880;DHT22;9572;52.378;13.404;2023-09-19T03:18:55;16.30;99.90
18880;DHT22;9572;52.378;13.404;2023-09-19T03:21:23;16.30;99.90
18880;DHT22;9572;52.378;13.404;2023-09-19T03:23:51;16.30;99.90
18880;DHT22;9572;52.378;13.404;2023-09-19T03:26:18;16.30;99.90
18880;DHT22;9572;52.378;13.404;2023-09-19T03:28:47;16.20;99.90
18880;DHT22;9572;52.378;13.404;2023-09-19T03:31:14;16.30;99.90
18880;DHT22;9572;52.378;13.404;2023-09-19T03:33:43;16.30;99.90
18880;DHT22;9572;52.378;13.404;2023-09-19T03:36:10;16.30;99.90
18880;DHT22;9572;52.378;13.404;2023-09-19T03:38:40;16.40;99.90
18880;DHT22;9572;52.378;13.404;2023-09-19T03:41:07;16.40;99.90
18880;DHT22;9572;52.378;13.404;2023-09-19T03:43:34;16.30;99.90
18880;DHT22;9572;52.378;13.404;2023-09-19T03:46:03;16.30;99.90
18880;DHT22;9572;52.378;13.404;2023-09-19T03:48:30;16.30;99.90
18880;DHT22;9572;52.378;13.404;2023-09-19T03:50:57;16.30;99.90
18880;DHT22;9572;52.378;13.404;2023-09-19T03:53:24;16.40;99.90
18880;DHT22;9572;52.378;13.404;2023-09-19T03:55:51;16.50;99.90
18880;DHT22;9572;52.378;13.404;2023-09-19T03:58:19;16.60;99.90
18880;DHT22;9572;52.378;13.404;2023-09-19T04:00:46;16.60;99.90
18880;DHT22;9572;52.378;13.404;2023-09-19T04:03:15;16.60;99.90
18880;DHT22;9572;52.378;13.404;2023-09-19T04:05:46;16.60;99.90
18880;DHT22;9572;52.378;13.404;2023-09-19T04:08:13;16.60;99.90
18880;DHT22;9572;52.378;13.404;2023-09-19T04:10:42;16.60;99.90
18880;DHT22;9572;52.378;13.404;2023-09-19T04:13:09;16.60;99.90
18880;DHT22;9572;52.378;13.404;2023-09-19T04:15:36;16.60;99.90
18880;DHT22;9572;52.378;13.404;2023-09-19T04:18:03;16.50;99.90
18880;DHT22;9572;52.378;13.404;2023-09-19T04:20:32;16.60;99.90
18880;DHT22;9572;52.378;13.404;2023-09-19T04:22:59;16.60;99.90
18880;DHT22;9572;52.378;13.404;2023-09-19T04:25:26;16.50;99.90
18880;DHT22;9572;52.378;13.404;2023-09-19T04:27:54;16.60;99.90
18880;DHT22;9572;52.378;13.404;2023-09-19T04:30:21;16.60;99.90
18880;DHT22;9572;52.378;13.404;2023-09-19T04:32:48;16.70;99.90
18880;DHT22;9572;52.378;13.404;2023-09-19T04:35:16;16.70;99.90
18880;DHT22;9572;52.378;13.404;2023-09-19T04:37:45;16.80;99.90
18880;DHT22;9572;52.378;13.404;2023-09-19T04:40:13;16.70;99.90
18880;DHT22;9572;52.378;13.404;2023-09-19T04:42:43;16.70;99.90
18880;DHT22;9572;52.378;13.404;2023-09-19T04:45:11;16.70;99.90
18880;DHT22;9572;52.378;13.404;2023-09-19T04:47:39;16.70;99.90
18880;DHT22;9572;52.378;13.404;2023-09-19T04:50:08;16.70;99.90
18880;DHT22;9572;52.378;13.404;2023-09-19T04:52:39;16.70;99.90
18880;DHT22;9572;52.378;13.404;2023-09-19T04:55:10;16.60;99.90
18880;DHT22;9572;52.378;13.404;2023-09-19T04:57:39;16.60;99.90
18880;DHT22;9572;52.378;13.404;2023-09-19T05:00:07;16.70;99.90
18880;DHT22;9572;52.378;13.404;2023-09-19T05:02:38;16.80;99.90
18880;DHT22;9572;52.378;13.404;2023-09-19T05:05:07;16.70;99.90
18880;DHT22;9572;52.378;13.404;2023-09-19T05:07:34;16.60;99.90
18880;DHT22;9572;52.378;13.404;2023-09-19T05:10:01;16.60;99.90
18880;DHT22;9572;52.378;13.404;2023-09-19T05:12:32;16.60;99.90
18880;DHT22;9572;52.378;13.404;2023-09-19T05:14:59;16.60;99.90
18880;DHT22;9572;52.378;13.404;2023-09-19T05:17:27;16.60;99.90
18880;DHT22;9572;52.378;13.404;2023-09-19T05:19:53;16.60;99.90
18880;DHT22;9572;52.378;13.404;2023-09-19T05:22:20;16.50;99.90
18880;DHT22;9572;52.378;13.404;2023-09-19T05:24:50;16.60;99.90
18880;DHT22;9572;52.378;13.404;2023-09-19T05:27:18;16.60;99.90
18880;DHT22;9572;52.378;13.404;2023-09-19T05:29:48;16.60;99.90
18880;DHT22;9572;52.378;13.404;2023-09-19T05:32:16;16.50;99.90
18880;DHT22;9572;52.378;13.404;2023-09-19T05:34:43;16.50;99.90
18880;DHT22;9572;52.378;13.404;2023-09-19T05:37:10;16.50;99.90
18880;DHT22;9572;52.378;13.404;2023-09-19T05:39:37;16.50;99.90
18880;DHT22;9572;52.378;13.404;2023-09-19T05:42:04;16.40;99.90
18880;DHT22;9572;52.378;13.404;2023-09-19T05:44:33;16.40;99.90
18880;DHT22;9572;52.378;13.404;2023-09-19T05:47:03;16.50;99.90
18880;DHT22;9572;52.378;13.404;2023-09-19T05:49:30;16.50;99.90
18880;DHT22;9572;52.378;13.404;2023-09-19T05:51:57;16.50;99.90
18880;DHT22;9572;52.378;13.404;2023-09-19T05:54:24;16.60;99.90
18880;DHT22;9572;52.378;13.404;2023-09-19T05:56:51;16.50;99.90
18880;DHT22;9572;52.378;13.404;2023-09-19T05:59:19;16.50;99.90
18880;DHT22;9572;52.378;13.404;2023-09-19T06:01:46;16.40;99.90
18880;DHT22;9572;52.378;13.404;2023-09-19T06:04:14;16.40;99.90
18880;DHT22;9572;52.378;13.404;2023-09-19T06:06:41;16.40;99.90
18880;DHT22;9572;52.378;13.404;2023-09-19T06:09:08;16.50;99.90
18880;DHT22;9572;52.378;13.404;2023-09-19T06:11:35;16.50;99.90
18880;DHT22;9572;52.378;13.404;2023-09-19T06:14:03;16.50;99.90
18880;DHT22;9572;52.378;13.404;2023-09-19T06:16:30;16.50;99.90
18880;DHT22;9572;52.378;13.404;2023-09-19T06:18:58;16.40;99.90
18880;DHT22;9572;52.378;13.404;2023-09-19T06:21:27;16.40;99.90
18880;DHT22;9572;52.378;13.404;2023-09-19T06:23:54;16.50;99.90
18880;DHT22;9572;52.378;13.404;2023-09-19T06:26:21;16.50;99.90
18880;DHT22;9572;52.378;13.404;2023-09-19T06:28:49;16.70;99.90
18880;DHT22;9572;52.378;13.404;2023-09-19T06:31:15;16.70;99.90
18880;DHT22;9572;52.378;13.404;2023-09-19T06:33:42;16.60;99.90
18880;DHT22;9572;52.378;13.404;2023-09-19T06:36:10;16.60;99.90
18880;DHT22;9572;52.378;13.404;2023-09-19T06:38:38;16.70;99.90
18880;DHT22;9572;52.378;13.404;2023-09-19T06:41:06;16.60;99.90
18880;DHT22;9572;52.378;13.404;2023-09-19T06:43:34;16.60;99.90
18880;DHT22;9572;52.378;13.404;2023-09-19T06:46:01;16.60;99.90
18880;DHT22;9572;52.378;13.404;2023-09-19T06:48:29;16.70;99.90
18880;DHT22;9572;52.378;13.404;2023-09-19T06:50:56;16.80;99.90
18880;DHT22;9572;52.378;13.404;2023-09-19T06:53:24;16.80;99.90
18880;DHT22;9572;52.378;13.404;2023-09-19T06:55:52;16.90;99.90
18880;DHT22;9572;52.378;13.404;2023-09-19T06:58:20;16.80;99.90
18880;DHT22;9572;52.378;13.404;2023-09-19T07:00:47;16.80;99.90
18880;DHT22;9572;52.378;13.404;2023-09-19T07:03:15;16.90;99.90
18880;DHT22;9572;52.378;13.404;2023-09-19T07:05:44;17.10;99.90
18880;DHT22;9572;52.378;13.404;2023-09-19T07:08:11;17.20;99.90
18880;DHT22;9572;52.378;13.404;2023-09-19T07:10:39;17.30;99.90
18880;DHT22;9572;52.378;13.404;2023-09-19T07:13:08;17.40;99.90
18880;DHT22;9572;52.378;13.404;2023-09-19T07:15:37;17.60;99.90
18880;DHT22;9572;52.378;13.404;2023-09-19T07:18:07;17.70;99.90
18880;DHT22;9572;52.378;13.404;2023-09-19T07:20:37;17.80;99.90
18880;DHT22;9572;52.378;13.404;2023-09-19T07:23:04;18.00;99.90
18880;DHT22;9572;52.378;13.404;2023-09-19T07:25:31;18.20;99.90
18880;DHT22;9572;52.378;13.404;2023-09-19T07:27:59;18.40;99.90
18880;DHT22;9572;52.378;13.404;2023-09-19T07:30:27;18.50;99.90
18880;DHT22;9572;52.378;13.404;2023-09-19T07:32:54;18.60;99.90
18880;DHT22;9572;52.378;13.404;2023-09-19T07:35:22;18.70;99.90
18880;DHT22;9572;52.378;13.404;2023-09-19T07:37:51;18.80;99.90
18880;DHT22;9572;52.378;13.404;2023-09-19T07:40:22;18.90;99.90
18880;DHT22;9572;52.378;13.404;2023-09-19T07:42:53;19.00;99.90
18880;DHT22;9572;52.378;13.404;2023-09-19T07:45:20;19.20;99.90
18880;DHT22;9572;52.378;13.404;2023-09-19T07:47:55;19.20;99.90
18880;DHT22;9572;52.378;13.404;2023-09-19T07:50:22;19.20;99.90
18880;DHT22;9572;52.378;13.404;2023-09-19T07:52:52;19.30;99.90
18880;DHT22;9572;52.378;13.404;2023-09-19T07:55:22;19.30;99.90
18880;DHT22;9572;52.378;13.404;2023-09-19T07:57:51;19.30;99.90
18880;DHT22;9572;52.378;13.404;2023-09-19T08:00:21;19.30;99.90
18880;DHT22;9572;52.378;13.404;2023-09-19T08:02:50;19.30;99.90
18880;DHT22;9572;52.378;13.404;2023-09-19T08:05:26;19.40;99.90
18880;DHT22;9572;52.378;13.404;2023-09-19T08:07:53;19.40;99.90
18880;DHT22;9572;52.378;13.404;2023-09-19T08:10:22;19.40;99.90
18880;DHT22;9572;52.378;13.404;2023-09-19T08:12:53;19.40;99.90
18880;DHT22;9572;52.378;13.404;2023-09-19T08:15:23;19.40;99.90
18880;DHT22;9572;52.378;13.404;2023-09-19T08:17:50;19.40;99.90
18880;DHT22;9572;52.378;13.404;2023-09-19T08:20:18;19.40;99.90
18880;DHT22;9572;52.378;13.404;2023-09-19T08:22:49;19.50;99.90
18880;DHT22;9572;52.378;13.404;2023-09-19T08:25:18;19.50;99.90
18880;DHT22;9572;52.378;13.404;2023-09-19T08:27:46;19.50;99.90
18880;DHT22;9572;52.378;13.404;2023-09-19T08:30:14;19.50;99.90
18880;DHT22;9572;52.378;13.404;2023-09-19T08:32:42;19.40;99.90
18880;DHT22;9572;52.378;13.404;2023-09-19T08:35:09;19.30;99.90
18880;DHT22;9572;52.378;13.404;2023-09-19T08:37:36;19.20;99.90
18880;DHT22;9572;52.378;13.404;2023-09-19T08:40:05;19.20;99.90
18880;DHT22;9572;52.378;13.404;2023-09-19T08:42:47;19.00;99.90
18880;DHT22;9572;52.378;13.404;2023-09-19T08:45:15;19.00;99.90
18880;DHT22;9572;52.378;13.404;2023-09-19T08:47:46;18.90;99.90
18880;DHT22;9572;52.378;13.404;2023-09-19T08:50:19;19.00;99.90
18880;DHT22;9572;52.378;13.404;2023-09-19T08:52:51;19.10;99.90
18880;DHT22;9572;52.378;13.404;2023-09-19T08:55:25;19.20;99.90
18880;DHT22;9572;52.378;13.404;2023-09-19T08:58:00;19.30;99.90
18880;DHT22;9572;52.378;13.404;2023-09-19T09:00:28;19.50;99.90
18880;DHT22;9572;52.378;13.404;2023-09-19T09:02:56;19.50;99.90
18880;DHT22;9572;52.378;13.404;2023-09-19T09:05:24;19.40;99.90
18880;DHT22;9572;52.378;13.404;2023-09-19T09:07:52;19.40;99.90
18880;DHT22;9572;52.378;13.404;2023-09-19T09:10:22;19.40;99.90
18880;DHT22;9572;52.378;13.404;2023-09-19T09:12:51;19.40;99.90
18880;DHT22;9572;52.378;13.404;2023-09-19T09:15:19;19.40;99.90
18880;DHT22;9572;52.378;13.404;2023-09-19T09:17:49;19.40;99.90
18880;DHT22;9572;52.378;13.404;2023-09-19T09:20:16;19.50;99.90
18880;DHT22;9572;52.378;13.404;2023-09-19T09:22:53;19.60;99.90
18880;DHT22;9572;52.378;13.404;2023-09-19T09:25:22;19.50;99.90
18880;DHT22;9572;52.378;13.404;2023-09-19T09:27:59;19.50;99.90
18880;DHT22;9572;52.378;13.404;2023-09-19T09:30:33;19.50;99.90
18880;DHT22;9572;52.378;13.404;2023-09-19T09:33:10;19.60;99.90
18880;DHT22;9572;52.378;13.404;2023-09-19T09:35:46;19.50;99.90
18880;DHT22;9572;52.378;13.404;2023-09-19T09:38:13;19.50;99.90
18880;DHT22;9572;52.378;13.404;2023-09-19T09:40:48;19.50;99.90
18880;DHT22;9572;52.378;13.404;2023-09-19T09:43:26;19.70;99.90
18880;DHT22;9572;52.378;13.404;2023-09-19T09:46:21;19.70;99.90
18880;DHT22;9572;52.378;13.404;2023-09-19T09:49:05;19.80;99.90
18880;DHT22;9572;52.378;13.404;2023-09-19T09:51:45;20.00;99.90
18880;DHT22;9572;52.378;13.404;2023-09-19T09:54:23;20.50;99.90
18880;DHT22;9572;52.378;13.404;2023-09-19T09:56:55;20.70;99.90
18880;DHT22;9572;52.378;13.404;2023-09-19T09:59:44;21.00;99.90
18880;DHT22;9572;52.378;13.404;2023-09-19T10:02:13;21.90;99.90
18880;DHT22;9572;52.378;13.404;2023-09-19T10:04:46;22.60;99.90
18880;DHT22;9572;52.378;13.404;2023-09-19T10:07:29;23.20;99.90
18880;DHT22;9572;52.378;13.404;2023-09-19T10:10:02;23.20;99.90
18880;DHT22;9572;52.378;13.404;2023-09-19T10:12:45;23.20;99.90
18880;DHT22;9572;52.378;13.404;2023-09-19T10:15:15;23.60;99.90
18880;DHT22;9572;52.378;13.404;2023-09-19T10:17:43;24.20;99.90
18880;DHT22;9572;52.378;13.404;2023-09-19T10:20:15;24.80;99.90
18880;DHT22;9572;52.378;13.404;2023-09-19T10:23:00;24.50;99.90
18880;DHT22;9572;52.378;13.404;2023-09-19T10:25:28;23.70;99.90
18880;DHT22;9572;52.378;13.404;2023-09-19T10:27:57;23.60;99.90
18880;DHT22;9572;52.378;13.404;2023-09-19T10:30:29;24.10;99.90
18880;DHT22;9572;52.378;13.404;2023-09-19T10:33:01;23.70;99.90
18880;DHT22;9572;52.378;13.404;2023-09-19T10:35:28;23.20;99.90
18880;DHT22;9572;52.378;13.404;2023-09-19T10:37:57;23.10;99.90
18880;DHT22;9572;52.378;13.404;2023-09-19T10:40:27;23.30;99.90
18880;DHT22;9572;52.378;13.404;2023-09-19T10:43:03;23.80;99.90
18880;DHT22;9572;52.378;13.404;2023-09-19T10:45:32;24.50;99.90
18880;DHT22;9572;52.378;13.404;2023-09-19T10:47:59;25.40;99.90
18880;DHT22;9572;52.378;13.404;2023-09-19T10:50:31;25.60;99.90
18880;DHT22;9572;52.378;13.404;2023-09-19T10:53:01;25.10;99.90
18880;DHT22;9572;52.378;13.404;2023-09-19T10:55:31;24.40;99.90
18880;DHT22;9572;52.378;13.404;2023-09-19T10:58:02;23.60;99.90
18880;DHT22;9572;52.378;13.404;2023-09-19T11:00:54;23.00;99.90
18880;DHT22;9572;52.378;13.404;2023-09-19T11:03:23;22.50;99.90
18880;DHT22;9572;52.378;13.404;2023-09-19T11:06:09;22.20;99.90
18880;DHT22;9572;52.378;13.404;2023-09-19T11:08:56;22.00;99.90
18880;DHT22;9572;52.378;13.404;2023-09-19T11:11:43;22.00;99.90
18880;DHT22;9572;52.378;13.404;2023-09-19T11:14:38;22.00;99.90
18880;DHT22;9572;52.378;13.404;2023-09-19T11:17:31;22.10;99.90
18880;DHT22;9572;52.378;13.404;2023-09-19T11:20:25;22.00;99.90
18880;DHT22;9572;52.378;13.404;2023-09-19T11:23:20;21.90;99.90
18880;DHT22;9572;52.378;13.404;2023-09-19T11:25:52;21.90;99.90
18880;DHT22;9572;52.378;13.404;2023-09-19T11:28:34;21.90;99.90
18880;DHT22;9572;52.378;13.404;2023-09-19T11:34:46;22.00;99.90
18880;DHT22;9572;52.378;13.404;2023-09-19T11:40:37;21.70;99.90
18880;DHT22;9572;52.378;13.404;2023-09-19T11:43:29;21.70;99.90
18880;DHT22;9572;52.378;13.404;2023-09-19T11:46:06;21.60;99.90
18880;DHT22;9572;52.378;13.404;2023-09-19T11:48:35;21.60;99.90
18880;DHT22;9572;52.378;13.404;2023-09-19T11:51:17;21.60;99.90
18880;DHT22;9572;52.378;13.404;2023-09-19T11:53:53;21.50;99.90
18880;DHT22;9572;52.378;13.404;2023-09-19T11:56:21;21.40;99.90
18880;DHT22;9572;52.378;13.404;2023-09-19T11:58:50;21.50;99.90
18880;DHT22;9572;52.378;13.404;2023-09-19T12:01:23;21.50;99.90
18880;DHT22;9572;52.378;13.404;2023-09-19T12:03:55;21.60;99.90
18880;DHT22;9572;52.378;13.404;2023-09-19T12:06:26;21.50;99.90
18880;DHT22;9572;52.378;13.404;2023-09-19T12:08:55;21.50;99.90
18880;DHT22;9572;52.378;13.404;2023-09-19T12:11:23;21.40;99.90
18880;DHT22;9572;52.378;13.404;2023-09-19T12:13:52;21.40;99.90
18880;DHT22;9572;52.378;13.404;2023-09-19T12:16:22;21.40;99.90
18880;DHT22;9572;52.378;13.404;2023-09-19T12:18:50;21.40;99.90
18880;DHT22;9572;52.378;13.404;2023-09-19T12:21:28;21.40;99.90
18880;DHT22;9572;52.378;13.404;2023-09-19T12:24:04;21.30;99.90
18880;DHT22;9572;52.378;13.404;2023-09-19T12:26:38;21.40;99.90
18880;DHT22;9572;52.378;13.404;2023-09-19T12:29:12;21.50;99.90
18880;DHT22;9572;52.378;13.404;2023-09-19T12:31:48;21.50;99.90
18880;DHT22;9572;52.378;13.404;2023-09-19T12:34:16;21.60;99.90
18880;DHT22;9572;52.378;13.404;2023-09-19T12:36:47;21.60;99.90
18880;DHT22;9572;52.378;13.404;2023-09-19T12:39:23;21.50;99.90
18880;DHT22;9572;52.378;13.404;2023-09-19T12:41:51;21.50;99.90
18880;DHT22;9572;52.378;13.404;2023-09-19T12:44:20;21.40;99.90
18880;DHT22;9572;52.378;13.404;2023-09-19T12:46:51;21.40;99.90
18880;DHT22;9572;52.378;13.404;2023-09-19T12:49:24;21.50;99.90
18880;DHT22;9572;52.378;13.404;2023-09-19T12:51:55;21.50;99.90
18880;DHT22;9572;52.378;13.404;2023-09-19T12:54:25;21.50;99.90
18880;DHT22;9572;52.378;13.404;2023-09-19T12:56:52;21.50;99.90
18880;DHT22;9572;52.378;13.404;2023-09-19T12:59:29;21.50;99.90
18880;DHT22;9572;52.378;13.404;2023-09-19T13:02:05;21.50;99.90
18880;DHT22;9572;52.378;13.404;2023-09-19T13:04:39;21.50;99.90
18880;DHT22;9572;52.378;13.404;2023-09-19T13:07:41;21.50;99.90
18880;DHT22;9572;52.378;13.404;2023-09-19T13:10:12;21.40;99.90
18880;DHT22;9572;52.378;13.404;2023-09-19T13:12:42;21.30;99.90
18880;DHT22;9572;52.378;13.404;2023-09-19T13:15:14;21.40;99.90
18880;DHT22;9572;52.378;13.404;2023-09-19T13:17:46;21.40;99.90
18880;DHT22;9572;52.378;13.404;2023-09-19T13:20:23;21.40;99.90
18880;DHT22;9572;52.378;13.404;2023-09-19T13:22:56;21.40;99.90
18880;DHT22;9572;52.378;13.404;2023-09-19T13:25:38;21.40;99.90
18880;DHT22;9572;52.378;13.404;2023-09-19T13:28:05;21.30;99.90
18880;DHT22;9572;52.378;13.404;2023-09-19T13:30:37;21.30;99.90
18880;DHT22;9572;52.378;13.404;2023-09-19T13:33:09;21.40;99.90
18880;DHT22;9572;52.378;13.404;2023-09-19T13:35:38;21.40;99.90
18880;DHT22;9572;52.378;13.404;2023-09-19T13:38:07;21.40;99.90
18880;DHT22;9572;52.378;13.404;2023-09-19T13:40:37;21.30;99.90
18880;DHT22;9572;52.378;13.404;2023-09-19T13:43:05;21.40;99.90
18880;DHT22;9572;52.378;13.404;2023-09-19T13:45:33;21.40;99.90
18880;DHT22;9572;52.378;13.404;2023-09-19T13:48:00;21.40;99.90
18880;DHT22;9572;52.378;13.404;2023-09-19T13:50:27;21.40;99.90
18880;DHT22;9572;52.378;13.404;2023-09-19T13:52:55;21.50;99.90
18880;DHT22;9572;52.378;13.404;2023-09-19T13:55:26;21.40;99.90
18880;DHT22;9572;52.378;13.404;2023-09-19T13:57:53;21.30;99.90
18880;DHT22;9572;52.378;13.404;2023-09-19T14:00:22;21.30;99.90
18880;DHT22;9572;52.378;13.404;2023-09-19T14:02:49;21.30;99.90
18880;DHT22;9572;52.378;13.404;2023-09-19T14:05:17;21.30;99.90
18880;DHT22;9572;52.378;13.404;2023-09-19T14:07:46;21.40;99.90
18880;DHT22;9572;52.378;13.404;2023-09-19T14:10:13;21.50;99.90
18880;DHT22;9572;52.378;13.404;2023-09-19T14:12:44;21.40;99.90
18880;DHT22;9572;52.378;13.404;2023-09-19T14:15:11;21.40;99.90
18880;DHT22;9572;52.378;13.404;2023-09-19T14:17:39;21.40;99.90
18880;DHT22;9572;52.378;13.404;2023-09-19T14:20:08;21.40;99.90
18880;DHT22;9572;52.378;13.404;2023-09-19T14:22:36;21.30;99.90
18880;DHT22;9572;52.378;13.404;2023-09-19T14:25:03;21.30;99.90
18880;DHT22;9572;52.378;13.404;2023-09-19T14:27:30;21.30;99.90
18880;DHT22;9572;52.378;13.404;2023-09-19T14:29:59;21.20;99.90
18880;DHT22;9572;52.378;13.404;2023-09-19T14:32:26;21.30;99.90
18880;DHT22;9572;52.378;13.404;2023-09-19T14:34:53;21.20;99.90
18880;DHT22;9572;52.378;13.404;2023-09-19T14:37:20;21.20;99.90
18880;DHT22;9572;52.378;13.404;2023-09-19T14:39:47;21.20;99.90
18880;DHT22;9572;52.378;13.404;2023-09-19T14:42:14;21.20;99.90
18880;DHT22;9572;52.378;13.404;2023-09-19T14:44:43;21.20;99.90
18880;DHT22;9572;52.378;13.404;2023-09-19T14:47:11;21.20;99.90
18880;DHT22;9572;52.378;13.404;2023-09-19T14:49:39;21.20;99.90
18880;DHT22;9572;52.378;13.404;2023-09-19T14:52:07;21.20;99.90
18880;DHT22;9572;52.378;13.404;2023-09-19T14:54:35;21.10;99.90
18880;DHT22;9572;52.378;13.404;2023-09-19T14:57:04;21.00;99.90
18880;DHT22;9572;52.378;13.404;2023-09-19T14:59:31;21.10;99.90
18880;DHT22;9572;52.378;13.404;2023-09-19T15:01:59;21.00;99.90
18880;DHT22;9572;52.378;13.404;2023-09-19T15:04:27;21.00;99.90
18880;DHT22;9572;52.378;13.404;2023-09-19T15:06:54;20.90;99.90
18880;DHT22;9572;52.378;13.404;2023-09-19T15:09:21;20.90;99.90
18880;DHT22;9572;52.378;13.404;2023-09-19T15:11:51;20.90;99.90
18880;DHT22;9572;52.378;13.404;2023-09-19T15:14:19;20.90;99.90
18880;DHT22;9572;52.378;13.404;2023-09-19T15:19:18;20.80;99.90
18880;DHT22;9572;52.378;13.404;2023-09-19T15:21:46;20.80;99.90
18880;DHT22;9572;52.378;13.404;2023-09-19T15:24:13;20.80;99.90
18880;DHT22;9572;52.378;13.404;2023-09-19T15:26:40;20.80;99.90
18880;DHT22;9572;52.378;13.404;2023-09-19T15:29:10;20.80;99.90
18880;DHT22;9572;52.378;13.404;2023-09-19T15:31:41;20.80;99.90
18880;DHT22;9572;52.378;13.404;2023-09-19T15:34:10;20.70;99.90
18880;DHT22;9572;52.378;13.404;2023-09-19T15:36:42;20.70;99.90
18880;DHT22;9572;52.378;13.404;2023-09-19T15:39:11;20.70;99.90
18880;DHT22;9572;52.378;13.404;2023-09-19T15:41:45;20.60;99.90
18880;DHT22;9572;52.378;13.404;2023-09-19T15:44:15;20.70;99.90
18880;DHT22;9572;52.378;13.404;2023-09-19T15:46:43;20.70;99.90
18880;DHT22;9572;52.378;13.404;2023-09-19T15:49:10;20.70;99.90
18880;DHT22;9572;52.378;13.404;2023-09-19T15:51:41;20.60;99.90
18880;DHT22;9572;52.378;13.404;2023-09-19T15:54:12;20.70;99.90
18880;DHT22;9572;52.378;13.404;2023-09-19T15:56:41;20.70;99.90
18880;DHT22;9572;52.378;13.404;2023-09-19T15:59:09;20.60;99.90